sensor_id;sensor_type;location;lat;lon;timestamp;temperature;humidity
46309;DHT22;32037;50.820;6.494;2024-02-04T00:01:57;8.70;99.90
46309;DHT22;32037;50.820;6.494;2024-02-04T00:04:25;8.70;99.90
46309;DHT22;32037;50.820;6.494;2024-02-04T00:06:54;8.70;99.90
46309;DHT22;32037;50.820;6.494;2024-02-04T00:09:22;8.70;99.90
46309;DHT22;32037;50.820;6.494;2024-02-04T00:11:51;8.70;99.90
46309;DHT22;32037;50.820;6.494;2024-02-04T00:14:21;8.70;99.90
46309;DHT22;32037;50.820;6.494;2024-02-04T00:16:49;8.70;99.90
46309;DHT22;32037;50.820;6.494;2024-02-04T00:19:17;8.70;99.90
46309;DHT22;32037;50.820;6.494;2024-02-04T00:21:45;8.70;99.90
46309;DHT22;32037;50.820;6.494;2024-02-04T00:24:13;8.70;99.90
46309;DHT22;32037;50.820;6.494;2024-02-04T00:26:42;8.70;99.90
46309;DHT22;32037;50.820;6.494;2024-02-04T00:29:10;8.70;99.90
46309;DHT22;32037;50.820;6.494;2024-02-04T00:31:40;8.70;99.90
46309;DHT22;32037;50.820;6.494;2024-02-04T00:34:08;8.70;99.90
46309;DHT22;32037;50.820;6.494;2024-02-04T00:36:36;8.70;99.90
46309;DHT22;32037;50.820;6.494;2024-02-04T00:39:04;8.70;99.90
46309;DHT22;32037;50.820;6.494;2024-02-04T00:41:34;8.70;99.90
46309;DHT22;32037;50.820;6.494;2024-02-04T00:44:02;8.70;99.90
46309;DHT22;32037;50.820;6.494;2024-02-04T00:46:30;8.70;99.90
46309;DHT22;32037;50.820;6.494;2024-02-04T00:49:01;8.70;99.90
46309;DHT22;32037;50.820;6.494;2024-02-04T00:51:29;8.70;99.90
46309;DHT22;32037;50.820;6.494;2024-02-04T00:53:58;8.70;99.90
46309;DHT22;32037;50.820;6.494;2024-02-04T00:56:26;8.70;99.90
46309;DHT22;32037;50.820;6.494;2024-02-04T00:58:54;8.70;99.90
46309;DHT22;32037;50.820;6.494;2024-02-04T01:01:22;8.70;99.90
46309;DHT22;32037;50.820;6.494;2024-02-04T01:03:51;8.70;99.90
46309;DHT22;32037;50.820;6.494;2024-02-04T01:06:21;8.70;99.90
46309;DHT22;32037;50.820;6.494;2024-02-04T01:08:49;8.70;99.90
46309;DHT22;32037;50.820;6.494;2024-02-04T01:11:17;8.70;99.90
46309;DHT22;32037;50.820;6.494;2024-02-04T01:13:45;8.70;99.90
46309;DHT22;32037;50.820;6.494;2024-02-04T01:16:13;8.70;99.90
46309;DHT22;32037;50.820;6.494;2024-02-04T01:18:42;8.70;99.90
46309;DHT22;32037;50.820;6.494;2024-02-04T01:21:10;8.70;99.90
46309;DHT22;32037;50.820;6.494;2024-02-04T01:23:40;8.70;99.90
46309;DHT22;32037;50.820;6.494;2024-02-04T01:26:08;8.70;99.90
46309;DHT22;32037;50.820;6.494;2024-02-04T01:28:36;8.70;99.90
46309;DHT22;32037;50.820;6.494;2024-02-04T01:31:05;8.70;99.90
46309;DHT22;32037;50.820;6.494;2024-02-04T01:33:33;8.70;99.90
46309;DHT22;32037;50.820;6.494;2024-02-04T01:36:02;8.70;99.90
46309;DHT22;32037;50.820;6.494;2024-02-04T01:38:30;8.70;99.90
46309;DHT22;32037;50.820;6.494;2024-02-04T01:40:59;8.70;99.90
46309;DHT22;32037;50.820;6.494;2024-02-04T01:43:27;8.70;99.90
46309;DHT22;32037;50.820;6.494;2024-02-04T01:45:56;8.70;99.90
46309;DHT22;32037;50.820;6.494;2024-02-04T01:48:25;8.70;99.90
46309;DHT22;32037;50.820;6.494;2024-02-04T01:50:54;8.70;99.90
46309;DHT22;32037;50.820;6.494;2024-02-04T01:53:26;8.70;99.90
46309;DHT22;32037;50.820;6.494;2024-02-04T01:55:55;8.70;99.90
46309;DHT22;32037;50.820;6.494;2024-02-04T01:58:24;8.70;99.90
46309;DHT22;32037;50.820;6.494;2024-02-04T02:00:52;8.70;99.90
46309;DHT22;32037;50.820;6.494;2024-02-04T02:03:22;8.70;99.90
46309;DHT22;32037;50.820;6.494;2024-02-04T02:05:50;8.70;99.90
46309;DHT22;32037;50.820;6.494;2024-02-04T02:08:20;8.70;99.90
46309;DHT22;32037;50.820;6.494;2024-02-04T02:10:48;8.70;99.90
46309;DHT22;32037;50.820;6.494;2024-02-04T02:13:22;8.70;99.90
46309;DHT22;32037;50.820;6.494;2024-02-04T02:15:56;8.70;99.90
46309;DHT22;32037;50.820;6.494;2024-02-04T02:18:31;8.70;99.90
46309;DHT22;32037;50.820;6.494;2024-02-04T02:21:24;8.70;99.90
46309;DHT22;32037;50.820;6.494;2024-02-04T02:24:04;8.70;99.90
46309;DHT22;32037;50.820;6.494;2024-02-04T02:26:36;8.70;99.90
46309;DHT22;32037;50.820;6.494;2024-02-04T02:29:05;8.70;99.90
46309;DHT22;32037;50.820;6.494;2024-02-04T02:31:35;8.70;99.90
46309;DHT22;32037;50.820;6.494;2024-02-04T02:34:15;8.70;99.90
46309;DHT22;32037;50.820;6.494;2024-02-04T02:37:12;8.70;99.90
46309;DHT22;32037;50.820;6.494;2024-02-04T02:39:48;8.70;99.90
46309;DHT22;32037;50.820;6.494;2024-02-04T02:42:20;8.70;99.90
46309;DHT22;32037;50.820;6.494;2024-02-04T02:44:52;8.70;99.90
46309;DHT22;32037;50.820;6.494;2024-02-04T02:47:22;8.80;99.90
46309;DHT22;32037;50.820;6.494;2024-02-04T02:49:51;8.70;99.90
46309;DHT22;32037;50.820;6.494;2024-02-04T02:52:22;8.70;99.90
46309;DHT22;32037;50.820;6.494;2024-02-04T02:54:50;8.80;99.90
46309;DHT22;32037;50.820;6.494;2024-02-04T02:57:19;8.80;99.90
46309;DHT22;32037;50.820;6.494;2024-02-04T02:59:47;8.80;99.90
46309;DHT22;32037;50.820;6.494;2024-02-04T03:02:15;8.70;99.90
46309;DHT22;32037;50.820;6.494;2024-02-04T03:04:43;8.70;99.90
46309;DHT22;32037;50.820;6.494;2024-02-04T03:07:12;8.80;99.90
46309;DHT22;32037;50.820;6.494;2024-02-04T03:09:40;8.70;99.90
46309;DHT22;32037;50.820;6.494;2024-02-04T03:12:08;8.80;99.90
46309;DHT22;32037;50.820;6.494;2024-02-04T03:14:37;8.80;99.90
46309;DHT22;32037;50.820;6.494;2024-02-04T03:17:05;8.80;99.90
46309;DHT22;32037;50.820;6.494;2024-02-04T03:19:34;8.80;99.90
46309;DHT22;32037;50.820;6.494;2024-02-04T03:22:02;8.70;99.90
46309;DHT22;32037;50.820;6.494;2024-02-04T03:24:31;8.70;99.90
46309;DHT22;32037;50.820;6.494;2024-02-04T03:27:00;8.80;99.90
46309;DHT22;32037;50.820;6.494;2024-02-04T03:29:28;8.80;99.90
46309;DHT22;32037;50.820;6.494;2024-02-04T03:31:58;8.80;99.90
46309;DHT22;32037;50.820;6.494;2024-02-04T03:34:26;8.80;99.90
46309;DHT22;32037;50.820;6.494;2024-02-04T03:36:54;8.80;99.90
46309;DHT22;32037;50.820;6.494;2024-02-04T03:39:23;8.80;99.90
46309;DHT22;32037;50.820;6.494;2024-02-04T03:41:51;8.80;99.90
46309;DHT22;32037;50.820;6.494;2024-02-04T03:44:20;8.80;99.90
46309;DHT22;32037;50.820;6.494;2024-02-04T03:46:48;8.70;99.90
46309;DHT22;32037;50.820;6.494;2024-02-04T03:49:19;8.80;99.90
46309;DHT22;32037;50.820;6.494;2024-02-04T03:51:47;8.80;99.90
46309;DHT22;32037;50.820;6.494;2024-02-04T03:54:16;8.80;99.90
46309;DHT22;32037;50.820;6.494;2024-02-04T03:56:46;8.70;99.90
46309;DHT22;32037;50.820;6.494;2024-02-04T03:59:14;8.80;99.90
46309;DHT22;32037;50.820;6.494;2024-02-04T04:01:47;8.80;99.90
46309;DHT22;32037;50.820;6.494;2024-02-04T04:04:15;8.80;99.90
46309;DHT22;32037;50.820;6.494;2024-02-04T04:06:45;8.80;99.90
46309;DHT22;32037;50.820;6.494;2024-02-04T04:09:15;8.70;99.90
46309;DHT22;32037;50.820;6.494;2024-02-04T04:11:43;8.80;99.90
46309;DHT22;32037;50.820;6.494;2024-02-04T04:14:11;8.80;99.90
46309;DHT22;32037;50.820;6.494;2024-02-04T04:16:40;8.80;99.90
46309;DHT22;32037;50.820;6.494;2024-02-04T04:19:08;8.70;99.90
46309;DHT22;32037;50.820;6.494;2024-02-04T04:21:37;8.80;99.90
46309;DHT22;32037;50.820;6.494;2024-02-04T04:24:08;8.80;99.90
46309;DHT22;32037;50.820;6.494;2024-02-04T04:26:36;8.80;99.90
46309;DHT22;32037;50.820;6.494;2024-02-04T04:29:05;8.80;99.90
46309;DHT22;32037;50.820;6.494;2024-02-04T04:31:33;8.80;99.90
46309;DHT22;32037;50.820;6.494;2024-02-04T04:34:01;8.80;99.90
46309;DHT22;32037;50.820;6.494;2024-02-04T04:36:29;8.80;99.90
46309;DHT22;32037;50.820;6.494;2024-02-04T04:38:57;8.80;99.90
46309;DHT22;32037;50.820;6.494;2024-02-04T04:41:26;8.80;99.90
46309;DHT22;32037;50.820;6.494;2024-02-04T04:43:54;8.80;99.90
46309;DHT22;32037;50.820;6.494;2024-02-04T04:46:22;8.80;99.90
46309;DHT22;32037;50.820;6.494;2024-02-04T04:48:50;8.70;99.90
46309;DHT22;32037;50.820;6.494;2024-02-04T04:51:20;8.80;99.90
46309;DHT22;32037;50.820;6.494;2024-02-04T04:53:48;8.80;99.90
46309;DHT22;32037;50.820;6.494;2024-02-04T04:56:16;8.80;99.90
46309;DHT22;32037;50.820;6.494;2024-02-04T04:58:46;8.80;99.90
46309;DHT22;32037;50.820;6.494;2024-02-04T05:01:15;8.80;99.90
46309;DHT22;32037;50.820;6.494;2024-02-04T05:03:43;8.80;99.90
46309;DHT22;32037;50.820;6.494;2024-02-04T05:06:13;8.80;99.90
46309;DHT22;32037;50.820;6.494;2024-02-04T05:08:41;8.80;99.90
46309;DHT22;32037;50.820;6.494;2024-02-04T05:11:09;8.80;99.90
46309;DHT22;32037;50.820;6.494;2024-02-04T05:13:38;8.80;99.90
46309;DHT22;32037;50.820;6.494;2024-02-04T05:16:08;8.80;99.90
46309;DHT22;32037;50.820;6.494;2024-02-04T05:18:37;8.80;99.90
46309;DHT22;32037;50.820;6.494;2024-02-04T05:21:05;8.80;99.90
46309;DHT22;32037;50.820;6.494;2024-02-04T05:23:33;8.80;99.90
46309;DHT22;32037;50.820;6.494;2024-02-04T05:26:03;8.80;99.90
46309;DHT22;32037;50.820;6.494;2024-02-04T05:28:32;8.80;99.90
46309;DHT22;32037;50.820;6.494;2024-02-04T05:31:01;8.80;99.90
46309;DHT22;32037;50.820;6.494;2024-02-04T05:33:31;8.80;99.90
46309;DHT22;32037;50.820;6.494;2024-02-04T05:35:59;8.80;99.90
46309;DHT22;32037;50.820;6.494;2024-02-04T05:38:27;8.80;99.90
46309;DHT22;32037;50.820;6.494;2024-02-04T05:40:55;8.80;99.90
46309;DHT22;32037;50.820;6.494;2024-02-04T05:43:24;8.80;99.90
46309;DHT22;32037;50.820;6.494;2024-02-04T05:45:52;8.80;99.90
46309;DHT22;32037;50.820;6.494;2024-02-04T05:48:21;8.80;99.90
46309;DHT22;32037;50.820;6.494;2024-02-04T05:50:51;8.80;99.90
46309;DHT22;32037;50.820;6.494;2024-02-04T05:53:19;8.80;99.90
46309;DHT22;32037;50.820;6.494;2024-02-04T05:55:47;8.80;99.90
46309;DHT22;32037;50.820;6.494;2024-02-04T05:58:15;8.80;99.90
46309;DHT22;32037;50.820;6.494;2024-02-04T06:00:43;8.80;99.90
46309;DHT22;32037;50.820;6.494;2024-02-04T06:03:11;8.80;99.90
46309;DHT22;32037;50.820;6.494;2024-02-04T06:05:41;8.80;99.90
46309;DHT22;32037;50.820;6.494;2024-02-04T06:08:10;8.80;99.90
46309;DHT22;32037;50.820;6.494;2024-02-04T06:10:38;8.80;99.90
46309;DHT22;32037;50.820;6.494;2024-02-04T06:13:06;8.80;99.90
46309;DHT22;32037;50.820;6.494;2024-02-04T06:15:35;8.80;99.90
46309;DHT22;32037;50.820;6.494;2024-02-04T06:18:03;8.80;99.90
46309;DHT22;32037;50.820;6.494;2024-02-04T06:20:32;8.80;99.90
46309;DHT22;32037;50.820;6.494;2024-02-04T06:23:00;8.80;99.90
46309;DHT22;32037;50.820;6.494;2024-02-04T06:25:29;8.80;99.90
46309;DHT22;32037;50.820;6.494;2024-02-04T06:27:57;8.80;99.90
46309;DHT22;32037;50.820;6.494;2024-02-04T06:30:25;8.80;99.90
46309;DHT22;32037;50.820;6.494;2024-02-04T06:32:53;8.80;99.90
46309;DHT22;32037;50.820;6.494;2024-02-04T06:35:23;8.80;99.90
46309;DHT22;32037;50.820;6.494;2024-02-04T06:37:52;8.80;99.90
46309;DHT22;32037;50.820;6.494;2024-02-04T06:40:20;8.80;99.90
46309;DHT22;32037;50.820;6.494;2024-02-04T06:42:49;8.80;99.90
46309;DHT22;32037;50.820;6.494;2024-02-04T06:45:18;8.80;99.90
46309;DHT22;32037;50.820;6.494;2024-02-04T06:47:46;8.80;99.90
46309;DHT22;32037;50.820;6.494;2024-02-04T06:50:14;8.80;99.90
46309;DHT22;32037;50.820;6.494;2024-02-04T06:52:43;8.80;99.90
46309;DHT22;32037;50.820;6.494;2024-02-04T06:55:12;8.80;99.90
46309;DHT22;32037;50.820;6.494;2024-02-04T06:57:41;8.80;99.90
46309;DHT22;32037;50.820;6.494;2024-02-04T07:00:11;8.80;99.90
46309;DHT22;32037;50.820;6.494;2024-02-04T07:02:39;8.80;99.90
46309;DHT22;32037;50.820;6.494;2024-02-04T07:05:08;8.80;99.90
46309;DHT22;32037;50.820;6.494;2024-02-04T07:07:37;8.80;99.90
46309;DHT22;32037;50.820;6.494;2024-02-04T07:10:06;8.80;99.90
46309;DHT22;32037;50.820;6.494;2024-02-04T07:12:34;8.80;99.90
46309;DHT22;32037;50.820;6.494;2024-02-04T07:15:03;8.80;99.90
46309;DHT22;32037;50.820;6.494;2024-02-04T07:17:33;8.80;99.90
46309;DHT22;32037;50.820;6.494;2024-02-04T07:20:02;8.80;99.90
46309;DHT22;32037;50.820;6.494;2024-02-04T07:22:31;8.80;99.90
46309;DHT22;32037;50.820;6.494;2024-02-04T07:25:03;8.80;99.90
46309;DHT22;32037;50.820;6.494;2024-02-04T07:27:32;8.80;99.90
46309;DHT22;32037;50.820;6.494;2024-02-04T07:30:00;8.80;99.90
46309;DHT22;32037;50.820;6.494;2024-02-04T07:32:30;8.80;99.90
46309;DHT22;32037;50.820;6.494;2024-02-04T07:35:00;8.80;99.90
46309;DHT22;32037;50.820;6.494;2024-02-04T07:37:29;8.80;99.90
46309;DHT22;32037;50.820;6.494;2024-02-04T07:39:57;8.80;99.90
46309;DHT22;32037;50.820;6.494;2024-02-04T07:42:25;8.80;99.90
46309;DHT22;32037;50.820;6.494;2024-02-04T07:44:54;8.80;99.90
46309;DHT22;32037;50.820;6.494;2024-02-04T07:47:22;8.80;99.90
46309;DHT22;32037;50.820;6.494;2024-02-04T07:49:50;8.80;99.90
46309;DHT22;32037;50.820;6.494;2024-02-04T07:52:22;8.80;99.90
46309;DHT22;32037;50.820;6.494;2024-02-04T07:54:52;8.80;99.90
46309;DHT22;32037;50.820;6.494;2024-02-04T07:57:24;8.80;99.90
46309;DHT22;32037;50.820;6.494;2024-02-04T07:59:53;8.80;99.90
46309;DHT22;32037;50.820;6.494;2024-02-04T08:02:22;8.80;99.90
46309;DHT22;32037;50.820;6.494;2024-02-04T08:04:50;8.80;99.90
46309;DHT22;32037;50.820;6.494;2024-02-04T08:07:20;8.80;99.90
46309;DHT22;32037;50.820;6.494;2024-02-04T08:09:48;8.80;99.90
46309;DHT22;32037;50.820;6.494;2024-02-04T08:12:19;8.80;99.90
46309;DHT22;32037;50.820;6.494;2024-02-04T08:14:47;8.80;99.90
46309;DHT22;32037;50.820;6.494;2024-02-04T08:17:16;8.80;99.90
46309;DHT22;32037;50.820;6.494;2024-02-04T08:19:44;8.80;99.90
46309;DHT22;32037;50.820;6.494;2024-02-04T08:22:13;8.80;99.90
46309;DHT22;32037;50.820;6.494;2024-02-04T08:24:42;8.80;99.90
46309;DHT22;32037;50.820;6.494;2024-02-04T08:27:10;8.80;99.90
46309;DHT22;32037;50.820;6.494;2024-02-04T08:29:39;8.80;99.90
46309;DHT22;32037;50.820;6.494;2024-02-04T08:32:08;8.80;99.90
46309;DHT22;32037;50.820;6.494;2024-02-04T08:34:40;8.80;99.90
46309;DHT22;32037;50.820;6.494;2024-02-04T08:37:08;8.80;99.90
46309;DHT22;32037;50.820;6.494;2024-02-04T08:39:37;8.80;99.90
46309;DHT22;32037;50.820;6.494;2024-02-04T08:42:06;8.80;99.90
46309;DHT22;32037;50.820;6.494;2024-02-04T08:44:34;8.90;99.90
46309;DHT22;32037;50.820;6.494;2024-02-04T08:47:09;8.80;99.90
46309;DHT22;32037;50.820;6.494;2024-02-04T08:49:39;8.80;99.90
46309;DHT22;32037;50.820;6.494;2024-02-04T08:52:08;8.90;99.90
46309;DHT22;32037;50.820;6.494;2024-02-04T08:54:36;8.90;99.90
46309;DHT22;32037;50.820;6.494;2024-02-04T08:57:04;9.10;99.90
46309;DHT22;32037;50.820;6.494;2024-02-04T08:59:34;9.20;99.90
46309;DHT22;32037;50.820;6.494;2024-02-04T09:02:02;9.20;99.90
46309;DHT22;32037;50.820;6.494;2024-02-04T09:04:36;9.10;99.90
46309;DHT22;32037;50.820;6.494;2024-02-04T09:07:08;9.10;99.90
46309;DHT22;32037;50.820;6.494;2024-02-04T09:09:36;9.10;99.90
46309;DHT22;32037;50.820;6.494;2024-02-04T09:12:05;9.10;99.90
46309;DHT22;32037;50.820;6.494;2024-02-04T09:14:34;9.10;99.90
46309;DHT22;32037;50.820;6.494;2024-02-04T09:17:03;9.00;99.90
46309;DHT22;32037;50.820;6.494;2024-02-04T09:19:36;9.10;99.90
46309;DHT22;32037;50.820;6.494;2024-02-04T09:22:12;9.10;99.90
46309;DHT22;32037;50.820;6.494;2024-02-04T09:24:43;9.10;99.90
46309;DHT22;32037;50.820;6.494;2024-02-04T09:27:11;9.20;99.90
46309;DHT22;32037;50.820;6.494;2024-02-04T09:29:41;9.20;99.90
46309;DHT22;32037;50.820;6.494;2024-02-04T09:32:09;9.10;99.90
46309;DHT22;32037;50.820;6.494;2024-02-04T09:34:38;9.10;99.90
46309;DHT22;32037;50.820;6.494;2024-02-04T09:37:07;9.10;99.90
46309;DHT22;32037;50.820;6.494;2024-02-04T09:39:39;9.10;99.90
46309;DHT22;32037;50.820;6.494;2024-02-04T09:42:19;9.10;99.90
46309;DHT22;32037;50.820;6.494;2024-02-04T09:44:51;9.20;99.90
46309;DHT22;32037;50.820;6.494;2024-02-04T09:47:23;9.20;99.90
46309;DHT22;32037;50.820;6.494;2024-02-04T09:50:00;9.30;99.90
46309;DHT22;32037;50.820;6.494;2024-02-04T09:52:29;9.30;99.90
46309;DHT22;32037;50.820;6.494;2024-02-04T09:55:00;9.30;99.90
46309;DHT22;32037;50.820;6.494;2024-02-04T09:57:29;9.40;99.90
46309;DHT22;32037;50.820;6.494;2024-02-04T10:00:03;9.30;99.90
46309;DHT22;32037;50.820;6.494;2024-02-04T10:02:40;9.30;99.90
46309;DHT22;32037;50.820;6.494;2024-02-04T10:05:10;9.40;99.90
46309;DHT22;32037;50.820;6.494;2024-02-04T10:07:45;9.50;99.90
46309;DHT22;32037;50.820;6.494;2024-02-04T10:10:14;9.40;99.90
46309;DHT22;32037;50.820;6.494;2024-02-04T10:12:42;9.40;99.90
46309;DHT22;32037;50.820;6.494;2024-02-04T10:15:12;9.30;99.90
46309;DHT22;32037;50.820;6.494;2024-02-04T10:17:42;9.30;99.90
46309;DHT22;32037;50.820;6.494;2024-02-04T10:20:13;9.30;99.90
46309;DHT22;32037;50.820;6.494;2024-02-04T10:22:46;9.20;99.90
46309;DHT22;32037;50.820;6.494;2024-02-04T10:25:20;9.20;99.90
46309;DHT22;32037;50.820;6.494;2024-02-04T10:27:49;9.20;99.90
46309;DHT22;32037;50.820;6.494;2024-02-04T10:30:20;9.20;99.90
46309;DHT22;32037;50.820;6.494;2024-02-04T10:32:50;9.20;99.90
46309;DHT22;32037;50.820;6.494;2024-02-04T10:35:20;9.20;99.90
46309;DHT22;32037;50.820;6.494;2024-02-04T10:37:50;9.20;99.90
46309;DHT22;32037;50.820;6.494;2024-02-04T10:40:21;9.20;99.90
46309;DHT22;32037;50.820;6.494;2024-02-04T10:42:53;9.20;99.90
46309;DHT22;32037;50.820;6.494;2024-02-04T10:45:27;9.20;99.90
46309;DHT22;32037;50.820;6.494;2024-02-04T10:48:00;9.20;99.90
46309;DHT22;32037;50.820;6.494;2024-02-04T10:50:30;9.20;99.90
46309;DHT22;32037;50.820;6.494;2024-02-04T10:53:05;9.20;99.90
46309;DHT22;32037;50.820;6.494;2024-02-04T10:55:38;9.20;99.90
46309;DHT22;32037;50.820;6.494;2024-02-04T10:58:09;9.20;99.90
46309;DHT22;32037;50.820;6.494;2024-02-04T11:00:41;9.30;99.90
46309;DHT22;32037;50.820;6.494;2024-02-04T11:03:12;9.30;99.90
46309;DHT22;32037;50.820;6.494;2024-02-04T11:05:45;9.30;99.90
46309;DHT22;32037;50.820;6.494;2024-02-04T11:08:14;9.20;99.90
46309;DHT22;32037;50.820;6.494;2024-02-04T11:10:42;9.30;99.90
46309;DHT22;32037;50.820;6.494;2024-02-04T11:13:13;9.30;99.90
46309;DHT22;32037;50.820;6.494;2024-02-04T11:15:46;9.30;99.90
46309;DHT22;32037;50.820;6.494;2024-02-04T11:18:40;9.40;99.90
46309;DHT22;32037;50.820;6.494;2024-02-04T11:21:26;9.40;99.90
46309;DHT22;32037;50.820;6.494;2024-02-04T11:24:08;9.30;99.90
46309;DHT22;32037;50.820;6.494;2024-02-04T11:26:43;9.30;99.90
46309;DHT22;32037;50.820;6.494;2024-02-04T11:29:12;9.30;99.90
46309;DHT22;32037;50.820;6.494;2024-02-04T11:31:41;9.30;99.90
46309;DHT22;32037;50.820;6.494;2024-02-04T11:34:10;9.30;99.90
46309;DHT22;32037;50.820;6.494;2024-02-04T11:36:39;9.30;99.90
46309;DHT22;32037;50.820;6.494;2024-02-04T11:39:12;9.30;99.90
46309;DHT22;32037;50.820;6.494;2024-02-04T11:41:45;9.30;99.90
46309;DHT22;32037;50.820;6.494;2024-02-04T11:44:20;9.30;99.90
46309;DHT22;32037;50.820;6.494;2024-02-04T11:46:51;9.30;99.90
46309;DHT22;32037;50.820;6.494;2024-02-04T11:49:25;9.30;99.90
46309;DHT22;32037;50.820;6.494;2024-02-04T11:51:54;9.30;99.90
46309;DHT22;32037;50.820;6.494;2024-02-04T11:54:23;9.30;99.90
46309;DHT22;32037;50.820;6.494;2024-02-04T11:56:54;9.30;99.90
46309;DHT22;32037;50.820;6.494;2024-02-04T11:59:24;9.30;99.90
46309;DHT22;32037;50.820;6.494;2024-02-04T12:01:55;9.30;99.90
46309;DHT22;32037;50.820;6.494;2024-02-04T12:04:27;9.30;99.90
46309;DHT22;32037;50.820;6.494;2024-02-04T12:06:56;9.30;99.90
46309;DHT22;32037;50.820;6.494;2024-02-04T12:09:26;9.20;99.90
46309;DHT22;32037;50.820;6.494;2024-02-04T12:11:55;9.20;99.90
46309;DHT22;32037;50.820;6.494;2024-02-04T12:14:24;9.30;99.90
46309;DHT22;32037;50.820;6.494;2024-02-04T12:16:56;9.20;99.90
46309;DHT22;32037;50.820;6.494;2024-02-04T12:19:26;9.20;99.90
46309;DHT22;32037;50.820;6.494;2024-02-04T12:21:55;9.20;99.90
46309;DHT22;32037;50.820;6.494;2024-02-04T12:24:24;9.20;99.90
46309;DHT22;32037;50.820;6.494;2024-02-04T12:26:55;9.20;99.90
46309;DHT22;32037;50.820;6.494;2024-02-04T12:29:25;9.20;99.90
46309;DHT22;32037;50.820;6.494;2024-02-04T12:31:59;9.20;99.90
46309;DHT22;32037;50.820;6.494;2024-02-04T12:34:27;9.20;99.90
46309;DHT22;32037;50.820;6.494;2024-02-04T12:36:59;9.20;99.90
46309;DHT22;32037;50.820;6.494;2024-02-04T12:39:28;9.20;99.90
46309;DHT22;32037;50.820;6.494;2024-02-04T12:41:59;9.20;99.90
46309;DHT22;32037;50.820;6.494;2024-02-04T12:44:28;9.20;99.90
46309;DHT22;32037;50.820;6.494;2024-02-04T12:46:58;9.20;99.90
46309;DHT22;32037;50.820;6.494;2024-02-04T12:49:26;9.20;99.90
46309;DHT22;32037;50.820;6.494;2024-02-04T12:52:04;9.20;99.90
46309;DHT22;32037;50.820;6.494;2024-02-04T12:54:40;9.20;99.90
46309;DHT22;32037;50.820;6.494;2024-02-04T12:57:10;9.10;99.90
46309;DHT22;32037;50.820;6.494;2024-02-04T12:59:39;9.10;99.90
46309;DHT22;32037;50.820;6.494;2024-02-04T13:02:08;9.10;99.90
46309;DHT22;32037;50.820;6.494;2024-02-04T13:04:38;9.20;99.90
46309;DHT22;32037;50.820;6.494;2024-02-04T13:07:07;9.20;99.90
46309;DHT22;32037;50.820;6.494;2024-02-04T13:09:37;9.10;99.90
46309;DHT22;32037;50.820;6.494;2024-02-04T13:12:08;9.20;99.90
46309;DHT22;32037;50.820;6.494;2024-02-04T13:14:37;9.20;99.90
46309;DHT22;32037;50.820;6.494;2024-02-04T13:17:07;9.20;99.90
46309;DHT22;32037;50.820;6.494;2024-02-04T13:19:36;9.20;99.90
46309;DHT22;32037;50.820;6.494;2024-02-04T13:22:06;9.20;99.90
46309;DHT22;32037;50.820;6.494;2024-02-04T13:24:37;9.20;99.90
46309;DHT22;32037;50.820;6.494;2024-02-04T13:27:06;9.20;99.90
46309;DHT22;32037;50.820;6.494;2024-02-04T13:29:35;9.20;99.90
46309;DHT22;32037;50.820;6.494;2024-02-04T13:32:04;9.20;99.90
46309;DHT22;32037;50.820;6.494;2024-02-04T13:34:34;9.20;99.90
46309;DHT22;32037;50.820;6.494;2024-02-04T13:37:03;9.20;99.90
46309;DHT22;32037;50.820;6.494;2024-02-04T13:39:32;9.20;99.90
46309;DHT22;32037;50.820;6.494;2024-02-04T13:42:01;9.20;99.90
46309;DHT22;32037;50.820;6.494;2024-02-04T13:44:31;9.60;99.90
46309;DHT22;32037;50.820;6.494;2024-02-04T13:47:01;9.80;99.90
46309;DHT22;32037;50.820;6.494;2024-02-04T13:49:30;9.70;99.90
46309;DHT22;32037;50.820;6.494;2024-02-04T13:51:59;9.60;99.90
46309;DHT22;32037;50.820;6.494;2024-02-04T13:54:28;9.60;99.90
46309;DHT22;32037;50.820;6.494;2024-02-04T13:56:56;9.50;99.90
46309;DHT22;32037;50.820;6.494;2024-02-04T13:59:24;9.40;99.90
46309;DHT22;32037;50.820;6.494;2024-02-04T14:01:53;9.40;99.90
46309;DHT22;32037;50.820;6.494;2024-02-04T14:04:26;9.40;99.90
46309;DHT22;32037;50.820;6.494;2024-02-04T14:06:54;9.40;99.90
46309;DHT22;32037;50.820;6.494;2024-02-04T14:09:24;9.30;99.90
46309;DHT22;32037;50.820;6.494;2024-02-04T14:11:53;9.30;99.90
46309;DHT22;32037;50.820;6.494;2024-02-04T14:14:22;9.30;99.90
46309;DHT22;32037;50.820;6.494;2024-02-04T14:16:51;9.30;99.90
46309;DHT22;32037;50.820;6.494;2024-02-04T14:19:19;9.30;99.90
46309;DHT22;32037;50.820;6.494;2024-02-04T14:21:47;9.30;99.90
46309;DHT22;32037;50.820;6.494;2024-02-04T14:24:15;9.30;99.90
46309;DHT22;32037;50.820;6.494;2024-02-04T14:26:45;9.30;99.90
46309;DHT22;32037;50.820;6.494;2024-02-04T14:29:13;9.20;99.90
46309;DHT22;32037;50.820;6.494;2024-02-04T14:31:43;9.30;99.90
46309;DHT22;32037;50.820;6.494;2024-02-04T14:34:12;9.30;99.90
46309;DHT22;32037;50.820;6.494;2024-02-04T14:36:40;9.20;99.90
46309;DHT22;32037;50.820;6.494;2024-02-04T14:39:08;9.30;99.90
46309;DHT22;32037;50.820;6.494;2024-02-04T14:41:38;9.30;99.90
46309;DHT22;32037;50.820;6.494;2024-02-04T14:44:08;9.30;99.90
46309;DHT22;32037;50.820;6.494;2024-02-04T14:46:38;9.30;99.90
46309;DHT22;32037;50.820;6.494;2024-02-04T14:49:07;9.30;99.90
46309;DHT22;32037;50.820;6.494;2024-02-04T14:51:38;9.30;99.90
46309;DHT22;32037;50.820;6.494;2024-02-04T14:54:07;9.30;99.90
46309;DHT22;32037;50.820;6.494;2024-02-04T14:56:39;9.20;99.90
46309;DHT22;32037;50.820;6.494;2024-02-04T14:59:10;9.20;99.90
46309;DHT22;32037;50.820;6.494;2024-02-04T15:01:49;9.30;99.90
46309;DHT22;32037;50.820;6.494;2024-02-04T15:04:18;9.30;99.90
46309;DHT22;32037;50.820;6.494;2024-02-04T15:06:47;9.30;99.90
46309;DHT22;32037;50.820;6.494;2024-02-04T15:09:16;9.30;99.90
46309;DHT22;32037;50.820;6.494;2024-02-04T15:11:44;9.30;99.90
46309;DHT22;32037;50.820;6.494;2024-02-04T15:14:14;9.30;99.90
46309;DHT22;32037;50.820;6.494;2024-02-04T15:16:44;9.20;99.90
46309;DHT22;32037;50.820;6.494;2024-02-04T15:19:13;9.30;99.90
46309;DHT22;32037;50.820;6.494;2024-02-04T15:21:42;9.30;99.90
46309;DHT22;32037;50.820;6.494;2024-02-04T15:24:11;9.30;99.90
46309;DHT22;32037;50.820;6.494;2024-02-04T15:26:42;9.30;99.90
46309;DHT22;32037;50.820;6.494;2024-02-04T15:29:15;9.30;99.90
46309;DHT22;32037;50.820;6.494;2024-02-04T15:31:44;9.30;99.90
46309;DHT22;32037;50.820;6.494;2024-02-04T15:34:16;9.30;99.90
46309;DHT22;32037;50.820;6.494;2024-02-04T15:36:45;9.30;99.90
46309;DHT22;32037;50.820;6.494;2024-02-04T15:39:13;9.30;99.90
46309;DHT22;32037;50.820;6.494;2024-02-04T15:41:42;9.30;99.90
46309;DHT22;32037;50.820;6.494;2024-02-04T15:44:10;9.30;99.90
46309;DHT22;32037;50.820;6.494;2024-02-04T15:46:45;9.30;99.90
46309;DHT22;32037;50.820;6.494;2024-02-04T15:49:17;9.30;99.90
46309;DHT22;32037;50.820;6.494;2024-02-04T15:51:46;9.30;99.90
46309;DHT22;32037;50.820;6.494;2024-02-04T15:54:16;9.30;99.90
46309;DHT22;32037;50.820;6.494;2024-02-04T15:56:48;9.30;99.90
46309;DHT22;32037;50.820;6.494;2024-02-04T15:59:24;9.30;99.90
46309;DHT22;32037;50.820;6.494;2024-02-04T16:01:55;9.30;99.90